Pagina principale
METAR-TAF:

METAR-TAF

Aeroporti :

Portorose, Slovenia

Aeroporto di Portorose-Secovlje

latitudine: 45-31N, longitudine: 013-34E, altezza: 95 m

Osservazione

Il bollettino è stato emesso 29 minuti fa, alle 09:00 UTC
Vento 5 kt da nord-ovest
Temperature 25°C
Umidità 57%
Pressione 1018 hPa
Visibilità 10 km o più
nessuna nube inferiore a 1500 m e nessun cumulonembo

METAR: LJPZ 290900Z 31005KT CAVOK 25/16 Q1018

Ora: 11:29 (09:29 UTC)

Previsione

Il bollettino è stato emesso 1 ora e 29 minuti fa, alle 08:00 UTC
Previsione valida dal 29 alle 09 UTC al 29 alle 18 UTC
Vento 7 kt da ovest/nord-ovest
Visibilità 10 km o più
nessuna nube inferiore a 1500 m e nessun cumulonembo
Evoluzione graduale
dal 29 alle 12 UTC al 29 alle 14 UTC
Vento 7 kt da ovest/sud-ovest

TAF: LJPZ 290800Z 2909/2918 30007KT CAVOK BECMG 2912/2914 24007KT

Osservazioni e previsioni meteorologiche di più di 4000 aeroporti (messaggi METAR e TAF).

Le stazioni disponibili sono rappresentate dai dischi gialli e rossi sulla carta.

Puntare il mouse per vedere il nome della stazione.

Clicca sopra per visualizzare le osservazioni e previsioni meteorologiche.

Per cambiare la mappa : fare clic sui pulsanti verdi con una croce nera per ingrandire, il pulsante verde con un trattino per diminuire, o sulla freccia verde per le mappe adiacenti.


METAR-TAF: